Stoutland, Missouri
Current Conditions -  °F | °C
As of 6:15 AM on Monday 20 Oct 2014 (Local Time) from KH21 Reporting Station
Overcast Overcast  
Wind Chill: 14°   Ceiling: 8500
Heat Index: 14°   Visibility: 10mi
Dew Point: 10°   Wind: 8mph
Humidity: 77%   Direction: 240°WSW
Pressure: 30.01"   Gusts: NA
Location:  37.81°N, 92.51°W
Report Text: KH21 201115Z AUTO 24007KT 10SM OVC085 14/10 A3001 RMK AO2
Loading
Personal Weather Stations






























Interactive Weather Map
Tropical Storm Tracking
New forecast layout! Learn more

10-Day Weather Forecast

Advertisements
Track Severe Weather on mobile